sensor_id;sensor_type;location;lat;lon;timestamp;P1;durP1;ratioP1;P2;durP2;ratioP2
42704;SDS011;28342;42.594;23.414;2022-10-26T00:02:11;20.85;;;7.65;;
42704;SDS011;28342;42.594;23.414;2022-10-26T00:04:36;16.42;;;7.50;;
42704;SDS011;28342;42.594;23.414;2022-10-26T00:07:02;24.63;;;7.40;;
42704;SDS011;28342;42.594;23.414;2022-10-26T00:09:27;17.80;;;7.03;;
42704;SDS011;28342;42.594;23.414;2022-10-26T00:11:52;17.45;;;7.70;;
42704;SDS011;28342;42.594;23.414;2022-10-26T00:14:18;21.02;;;7.47;;
42704;SDS011;28342;42.594;23.414;2022-10-26T00:16:43;22.13;;;7.50;;
42704;SDS011;28342;42.594;23.414;2022-10-26T00:19:09;19.88;;;7.03;;
42704;SDS011;28342;42.594;23.414;2022-10-26T00:21:35;20.65;;;7.72;;
42704;SDS011;28342;42.594;23.414;2022-10-26T00:24:01;21.95;;;8.20;;
42704;SDS011;28342;42.594;23.414;2022-10-26T00:26:26;17.60;;;7.78;;
42704;SDS011;28342;42.594;23.414;2022-10-26T00:28:52;20.33;;;7.63;;
42704;SDS011;28342;42.594;23.414;2022-10-26T00:31:19;17.30;;;6.75;;
42704;SDS011;28342;42.594;23.414;2022-10-26T00:33:44;15.02;;;7.75;;
42704;SDS011;28342;42.594;23.414;2022-10-26T00:36:10;17.30;;;7.55;;
42704;SDS011;28342;42.594;23.414;2022-10-26T00:38:38;14.23;;;7.00;;
42704;SDS011;28342;42.594;23.414;2022-10-26T00:41:12;18.38;;;6.90;;
42704;SDS011;28342;42.594;23.414;2022-10-26T00:43:39;24.60;;;7.78;;
42704;SDS011;28342;42.594;23.414;2022-10-26T00:46:07;16.67;;;7.72;;
42704;SDS011;28342;42.594;23.414;2022-10-26T00:48:37;22.00;;;7.65;;
42704;SDS011;28342;42.594;23.414;2022-10-26T00:51:08;14.70;;;6.85;;
42704;SDS011;28342;42.594;23.414;2022-10-26T00:53:37;15.93;;;7.32;;
42704;SDS011;28342;42.594;23.414;2022-10-26T00:56:03;20.73;;;8.27;;
42704;SDS011;28342;42.594;23.414;2022-10-26T00:58:29;16.85;;;7.10;;
42704;SDS011;28342;42.594;23.414;2022-10-26T01:00:55;18.05;;;7.22;;
42704;SDS011;28342;42.594;23.414;2022-10-26T01:03:21;18.80;;;7.47;;
42704;SDS011;28342;42.594;23.414;2022-10-26T01:05:49;24.02;;;7.35;;
42704;SDS011;28342;42.594;23.414;2022-10-26T01:08:17;17.30;;;6.75;;
42704;SDS011;28342;42.594;23.414;2022-10-26T01:10:43;16.88;;;7.70;;
42704;SDS011;28342;42.594;23.414;2022-10-26T01:13:09;29.35;;;7.28;;
42704;SDS011;28342;42.594;23.414;2022-10-26T01:21:44;23.42;;;7.13;;
42704;SDS011;28342;42.594;23.414;2022-10-26T01:27:22;20.92;;;6.97;;
42704;SDS011;28342;42.594;23.414;2022-10-26T01:35:26;21.73;;;7.90;;
42704;SDS011;28342;42.594;23.414;2022-10-26T01:37:57;13.55;;;6.20;;
42704;SDS011;28342;42.594;23.414;2022-10-26T01:40:45;20.67;;;7.00;;
42704;SDS011;28342;42.594;23.414;2022-10-26T01:43:35;19.88;;;7.18;;
42704;SDS011;28342;42.594;23.414;2022-10-26T01:46:04;19.25;;;7.75;;
42704;SDS011;28342;42.594;23.414;2022-10-26T01:48:32;14.07;;;6.53;;
42704;SDS011;28342;42.594;23.414;2022-10-26T01:50:59;13.88;;;5.80;;
42704;SDS011;28342;42.594;23.414;2022-10-26T01:53:26;18.38;;;7.55;;
42704;SDS011;28342;42.594;23.414;2022-10-26T01:55:53;15.20;;;5.95;;
42704;SDS011;28342;42.594;23.414;2022-10-26T02:04:12;15.20;;;6.80;;
42704;SDS011;28342;42.594;23.414;2022-10-26T02:15:05;15.25;;;6.90;;
42704;SDS011;28342;42.594;23.414;2022-10-26T02:18:22;15.88;;;6.53;;
42704;SDS011;28342;42.594;23.414;2022-10-26T02:20:24;18.05;;;6.93;;
42704;SDS011;28342;42.594;23.414;2022-10-26T02:22:55;19.15;;;6.60;;
42704;SDS011;28342;42.594;23.414;2022-10-26T02:25:26;14.50;;;6.65;;
42704;SDS011;28342;42.594;23.414;2022-10-26T02:27:55;13.82;;;6.35;;
42704;SDS011;28342;42.594;23.414;2022-10-26T02:30:25;15.27;;;6.78;;
42704;SDS011;28342;42.594;23.414;2022-10-26T02:32:52;15.95;;;6.22;;
42704;SDS011;28342;42.594;23.414;2022-10-26T02:35:23;18.40;;;6.50;;
42704;SDS011;28342;42.594;23.414;2022-10-26T02:37:53;17.17;;;7.25;;
42704;SDS011;28342;42.594;23.414;2022-10-26T02:40:23;22.02;;;7.03;;
42704;SDS011;28342;42.594;23.414;2022-10-26T02:42:51;18.20;;;6.32;;
42704;SDS011;28342;42.594;23.414;2022-10-26T02:45:20;13.60;;;6.10;;
42704;SDS011;28342;42.594;23.414;2022-10-26T02:47:50;11.23;;;5.28;;
42704;SDS011;28342;42.594;23.414;2022-10-26T02:50:16;20.75;;;6.78;;
42704;SDS011;28342;42.594;23.414;2022-10-26T02:53:00;16.80;;;6.25;;
42704;SDS011;28342;42.594;23.414;2022-10-26T02:55:44;20.35;;;7.35;;
42704;SDS011;28342;42.594;23.414;2022-10-26T02:58:24;14.23;;;5.75;;
42704;SDS011;28342;42.594;23.414;2022-10-26T03:00:53;14.88;;;5.75;;
42704;SDS011;28342;42.594;23.414;2022-10-26T03:03:19;15.65;;;5.70;;
42704;SDS011;28342;42.594;23.414;2022-10-26T03:05:46;12.70;;;6.15;;
42704;SDS011;28342;42.594;23.414;2022-10-26T03:08:11;18.92;;;6.50;;
42704;SDS011;28342;42.594;23.414;2022-10-26T03:10:41;23.15;;;8.13;;
42704;SDS011;28342;42.594;23.414;2022-10-26T03:13:08;26.77;;;9.63;;
42704;SDS011;28342;42.594;23.414;2022-10-26T03:15:34;16.33;;;7.50;;
42704;SDS011;28342;42.594;23.414;2022-10-26T03:17:59;21.33;;;7.60;;
42704;SDS011;28342;42.594;23.414;2022-10-26T03:20:25;22.98;;;7.90;;
42704;SDS011;28342;42.594;23.414;2022-10-26T03:22:51;18.02;;;7.35;;
42704;SDS011;28342;42.594;23.414;2022-10-26T03:25:16;12.48;;;6.20;;
42704;SDS011;28342;42.594;23.414;2022-10-26T03:27:42;22.13;;;6.72;;
42704;SDS011;28342;42.594;23.414;2022-10-26T03:30:08;11.70;;;5.97;;
42704;SDS011;28342;42.594;23.414;2022-10-26T03:32:34;18.55;;;6.07;;
42704;SDS011;28342;42.594;23.414;2022-10-26T03:34:59;17.40;;;6.13;;
42704;SDS011;28342;42.594;23.414;2022-10-26T03:37:25;20.00;;;5.50;;
42704;SDS011;28342;42.594;23.414;2022-10-26T03:39:51;19.02;;;5.93;;
42704;SDS011;28342;42.594;23.414;2022-10-26T03:42:16;14.20;;;6.03;;
42704;SDS011;28342;42.594;23.414;2022-10-26T03:44:42;16.77;;;6.55;;
42704;SDS011;28342;42.594;23.414;2022-10-26T03:47:07;13.70;;;6.10;;
42704;SDS011;28342;42.594;23.414;2022-10-26T03:49:33;14.90;;;6.05;;
42704;SDS011;28342;42.594;23.414;2022-10-26T03:51:58;20.60;;;6.30;;
42704;SDS011;28342;42.594;23.414;2022-10-26T03:54:24;14.45;;;6.00;;
42704;SDS011;28342;42.594;23.414;2022-10-26T03:56:49;18.38;;;6.63;;
42704;SDS011;28342;42.594;23.414;2022-10-26T03:59:16;17.75;;;8.13;;
42704;SDS011;28342;42.594;23.414;2022-10-26T04:01:42;16.23;;;6.07;;
42704;SDS011;28342;42.594;23.414;2022-10-26T04:04:07;12.90;;;5.97;;
42704;SDS011;28342;42.594;23.414;2022-10-26T04:06:33;16.15;;;6.38;;
42704;SDS011;28342;42.594;23.414;2022-10-26T04:08:58;13.73;;;7.18;;
42704;SDS011;28342;42.594;23.414;2022-10-26T04:11:26;16.52;;;6.18;;
42704;SDS011;28342;42.594;23.414;2022-10-26T04:13:53;17.05;;;5.93;;
42704;SDS011;28342;42.594;23.414;2022-10-26T04:16:19;14.18;;;6.30;;
42704;SDS011;28342;42.594;23.414;2022-10-26T04:18:46;12.85;;;6.10;;
42704;SDS011;28342;42.594;23.414;2022-10-26T04:21:11;11.73;;;6.30;;
42704;SDS011;28342;42.594;23.414;2022-10-26T04:23:37;16.60;;;6.20;;
42704;SDS011;28342;42.594;23.414;2022-10-26T04:26:05;16.50;;;6.22;;
42704;SDS011;28342;42.594;23.414;2022-10-26T04:28:31;12.40;;;6.05;;
42704;SDS011;28342;42.594;23.414;2022-10-26T04:30:56;16.60;;;6.97;;
42704;SDS011;28342;42.594;23.414;2022-10-26T04:33:22;15.60;;;6.43;;
42704;SDS011;28342;42.594;23.414;2022-10-26T04:35:47;18.05;;;6.57;;
42704;SDS011;28342;42.594;23.414;2022-10-26T04:38:13;17.05;;;6.28;;
42704;SDS011;28342;42.594;23.414;2022-10-26T04:40:38;18.88;;;6.15;;
42704;SDS011;28342;42.594;23.414;2022-10-26T04:43:03;15.70;;;6.18;;
42704;SDS011;28342;42.594;23.414;2022-10-26T04:45:29;20.55;;;5.85;;
42704;SDS011;28342;42.594;23.414;2022-10-26T04:47:59;14.90;;;6.18;;
42704;SDS011;28342;42.594;23.414;2022-10-26T04:50:27;15.15;;;5.93;;
42704;SDS011;28342;42.594;23.414;2022-10-26T04:52:53;18.92;;;6.40;;
42704;SDS011;28342;42.594;23.414;2022-10-26T04:55:18;17.92;;;6.10;;
42704;SDS011;28342;42.594;23.414;2022-10-26T04:57:44;18.40;;;7.13;;
42704;SDS011;28342;42.594;23.414;2022-10-26T05:00:10;18.63;;;6.40;;
42704;SDS011;28342;42.594;23.414;2022-10-26T05:02:36;13.00;;;6.53;;
42704;SDS011;28342;42.594;23.414;2022-10-26T05:05:01;20.27;;;6.68;;
42704;SDS011;28342;42.594;23.414;2022-10-26T05:07:27;12.48;;;6.20;;
42704;SDS011;28342;42.594;23.414;2022-10-26T05:09:52;16.77;;;6.55;;
42704;SDS011;28342;42.594;23.414;2022-10-26T05:12:18;17.52;;;5.97;;
42704;SDS011;28342;42.594;23.414;2022-10-26T05:14:43;12.10;;;7.38;;
42704;SDS011;28342;42.594;23.414;2022-10-26T05:17:09;16.25;;;7.53;;
42704;SDS011;28342;42.594;23.414;2022-10-26T05:19:34;18.30;;;6.78;;
42704;SDS011;28342;42.594;23.414;2022-10-26T05:22:00;15.48;;;6.68;;
42704;SDS011;28342;42.594;23.414;2022-10-26T05:24:25;12.90;;;5.85;;
42704;SDS011;28342;42.594;23.414;2022-10-26T05:26:50;19.08;;;6.38;;
42704;SDS011;28342;42.594;23.414;2022-10-26T05:29:16;19.70;;;7.05;;
42704;SDS011;28342;42.594;23.414;2022-10-26T05:31:41;21.85;;;7.35;;
42704;SDS011;28342;42.594;23.414;2022-10-26T05:34:07;15.35;;;6.55;;
42704;SDS011;28342;42.594;23.414;2022-10-26T05:36:32;13.63;;;5.82;;
42704;SDS011;28342;42.594;23.414;2022-10-26T05:38:58;17.35;;;7.22;;
42704;SDS011;28342;42.594;23.414;2022-10-26T05:41:25;19.13;;;6.43;;
42704;SDS011;28342;42.594;23.414;2022-10-26T05:43:53;17.70;;;7.13;;
42704;SDS011;28342;42.594;23.414;2022-10-26T05:46:19;20.38;;;6.97;;
42704;SDS011;28342;42.594;23.414;2022-10-26T05:48:44;16.73;;;7.20;;
42704;SDS011;28342;42.594;23.414;2022-10-26T05:51:10;28.58;;;7.18;;
42704;SDS011;28342;42.594;23.414;2022-10-26T05:53:36;19.40;;;6.75;;
42704;SDS011;28342;42.594;23.414;2022-10-26T05:56:02;22.83;;;9.23;;
42704;SDS011;28342;42.594;23.414;2022-10-26T05:58:42;19.00;;;6.53;;
42704;SDS011;28342;42.594;23.414;2022-10-26T06:06:39;16.23;;;6.18;;
42704;SDS011;28342;42.594;23.414;2022-10-26T06:09:09;18.98;;;7.75;;
42704;SDS011;28342;42.594;23.414;2022-10-26T06:11:36;15.88;;;7.07;;
42704;SDS011;28342;42.594;23.414;2022-10-26T06:14:01;14.10;;;6.20;;
42704;SDS011;28342;42.594;23.414;2022-10-26T06:30:31;13.60;;;5.75;;
42704;SDS011;28342;42.594;23.414;2022-10-26T06:32:57;16.48;;;6.43;;
42704;SDS011;28342;42.594;23.414;2022-10-26T06:38:17;23.67;;;7.38;;
42704;SDS011;28342;42.594;23.414;2022-10-26T06:40:45;20.40;;;6.32;;
42704;SDS011;28342;42.594;23.414;2022-10-26T06:43:33;17.00;;;6.65;;
42704;SDS011;28342;42.594;23.414;2022-10-26T06:48:59;18.20;;;6.38;;
42704;SDS011;28342;42.594;23.414;2022-10-26T06:54:50;23.55;;;5.70;;
42704;SDS011;28342;42.594;23.414;2022-10-26T06:57:18;14.57;;;5.90;;
42704;SDS011;28342;42.594;23.414;2022-10-26T07:02:27;11.63;;;5.43;;
42704;SDS011;28342;42.594;23.414;2022-10-26T07:04:53;15.02;;;5.93;;
42704;SDS011;28342;42.594;23.414;2022-10-26T07:07:19;13.00;;;6.07;;
42704;SDS011;28342;42.594;23.414;2022-10-26T07:09:47;17.10;;;5.97;;
42704;SDS011;28342;42.594;23.414;2022-10-26T07:12:13;17.60;;;6.38;;
42704;SDS011;28342;42.594;23.414;2022-10-26T07:14:38;15.25;;;6.45;;
42704;SDS011;28342;42.594;23.414;2022-10-26T07:17:04;19.98;;;6.50;;
42704;SDS011;28342;42.594;23.414;2022-10-26T07:19:30;17.10;;;6.32;;
42704;SDS011;28342;42.594;23.414;2022-10-26T07:21:56;13.50;;;6.85;;
42704;SDS011;28342;42.594;23.414;2022-10-26T07:24:25;10.48;;;5.47;;
42704;SDS011;28342;42.594;23.414;2022-10-26T07:26:53;23.33;;;7.78;;
42704;SDS011;28342;42.594;23.414;2022-10-26T07:29:20;20.70;;;7.57;;
42704;SDS011;28342;42.594;23.414;2022-10-26T07:31:46;19.77;;;8.02;;
42704;SDS011;28342;42.594;23.414;2022-10-26T07:34:12;24.05;;;9.13;;
42704;SDS011;28342;42.594;23.414;2022-10-26T07:36:38;20.88;;;7.85;;
42704;SDS011;28342;42.594;23.414;2022-10-26T07:39:03;24.15;;;9.15;;
42704;SDS011;28342;42.594;23.414;2022-10-26T07:41:29;17.42;;;8.25;;
42704;SDS011;28342;42.594;23.414;2022-10-26T07:43:55;17.15;;;8.18;;
42704;SDS011;28342;42.594;23.414;2022-10-26T07:46:21;19.20;;;7.97;;
42704;SDS011;28342;42.594;23.414;2022-10-26T07:48:47;22.83;;;7.53;;
42704;SDS011;28342;42.594;23.414;2022-10-26T07:51:14;22.27;;;8.65;;
42704;SDS011;28342;42.594;23.414;2022-10-26T07:53:43;15.38;;;7.38;;
42704;SDS011;28342;42.594;23.414;2022-10-26T07:56:09;19.15;;;7.03;;
42704;SDS011;28342;42.594;23.414;2022-10-26T07:58:35;21.23;;;7.38;;
42704;SDS011;28342;42.594;23.414;2022-10-26T08:01:08;15.48;;;6.65;;
42704;SDS011;28342;42.594;23.414;2022-10-26T08:03:35;18.88;;;7.45;;
42704;SDS011;28342;42.594;23.414;2022-10-26T08:06:01;12.20;;;6.55;;
42704;SDS011;28342;42.594;23.414;2022-10-26T08:08:29;16.95;;;6.13;;
42704;SDS011;28342;42.594;23.414;2022-10-26T08:10:57;13.55;;;6.45;;
42704;SDS011;28342;42.594;23.414;2022-10-26T08:13:23;15.20;;;5.68;;
42704;SDS011;28342;42.594;23.414;2022-10-26T08:15:49;15.40;;;6.15;;
42704;SDS011;28342;42.594;23.414;2022-10-26T08:18:14;15.82;;;5.32;;
42704;SDS011;28342;42.594;23.414;2022-10-26T08:20:40;14.13;;;5.63;;
42704;SDS011;28342;42.594;23.414;2022-10-26T08:23:06;12.38;;;4.95;;
42704;SDS011;28342;42.594;23.414;2022-10-26T08:25:33;10.68;;;4.75;;
42704;SDS011;28342;42.594;23.414;2022-10-26T08:27:59;15.40;;;5.90;;
42704;SDS011;28342;42.594;23.414;2022-10-26T08:30:26;20.77;;;6.20;;
42704;SDS011;28342;42.594;23.414;2022-10-26T08:32:59;11.75;;;4.45;;
42704;SDS011;28342;42.594;23.414;2022-10-26T08:35:25;8.43;;;4.85;;
42704;SDS011;28342;42.594;23.414;2022-10-26T08:37:51;12.10;;;4.63;;
42704;SDS011;28342;42.594;23.414;2022-10-26T08:40:17;17.65;;;5.03;;
42704;SDS011;28342;42.594;23.414;2022-10-26T08:42:46;15.25;;;5.13;;
42704;SDS011;28342;42.594;23.414;2022-10-26T08:45:24;14.93;;;4.30;;
42704;SDS011;28342;42.594;23.414;2022-10-26T08:47:53;11.82;;;4.43;;
42704;SDS011;28342;42.594;23.414;2022-10-26T08:50:32;13.13;;;3.45;;
42704;SDS011;28342;42.594;23.414;2022-10-26T08:55:47;6.60;;;3.33;;
42704;SDS011;28342;42.594;23.414;2022-10-26T08:58:21;5.30;;;3.33;;
42704;SDS011;28342;42.594;23.414;2022-10-26T09:00:53;14.98;;;3.38;;
42704;SDS011;28342;42.594;23.414;2022-10-26T09:03:20;9.27;;;3.40;;
42704;SDS011;28342;42.594;23.414;2022-10-26T09:08:20;6.68;;;3.10;;
42704;SDS011;28342;42.594;23.414;2022-10-26T09:10:54;12.40;;;4.13;;
42704;SDS011;28342;42.594;23.414;2022-10-26T09:13:37;7.70;;;3.00;;
42704;SDS011;28342;42.594;23.414;2022-10-26T09:16:13;8.88;;;3.17;;
42704;SDS011;28342;42.594;23.414;2022-10-26T09:21:42;7.40;;;3.05;;
42704;SDS011;28342;42.594;23.414;2022-10-26T09:24:16;7.18;;;3.15;;
42704;SDS011;28342;42.594;23.414;2022-10-26T09:27:01;6.82;;;2.65;;
42704;SDS011;28342;42.594;23.414;2022-10-26T09:29:40;11.02;;;2.85;;
42704;SDS011;28342;42.594;23.414;2022-10-26T09:32:25;5.75;;;2.72;;
42704;SDS011;28342;42.594;23.414;2022-10-26T09:35:27;7.57;;;2.22;;
42704;SDS011;28342;42.594;23.414;2022-10-26T09:38:03;11.95;;;2.88;;
42704;SDS011;28342;42.594;23.414;2022-10-26T09:40:41;7.70;;;2.15;;
42704;SDS011;28342;42.594;23.414;2022-10-26T09:46:33;3.92;;;2.40;;
42704;SDS011;28342;42.594;23.414;2022-10-26T09:49:08;4.82;;;2.70;;
42704;SDS011;28342;42.594;23.414;2022-10-26T09:51:37;8.98;;;2.95;;
42704;SDS011;28342;42.594;23.414;2022-10-26T09:54:16;11.85;;;3.17;;
42704;SDS011;28342;42.594;23.414;2022-10-26T09:56:47;6.43;;;2.83;;
42704;SDS011;28342;42.594;23.414;2022-10-26T09:59:19;6.53;;;2.78;;
42704;SDS011;28342;42.594;23.414;2022-10-26T10:01:46;8.77;;;3.20;;
42704;SDS011;28342;42.594;23.414;2022-10-26T10:06:42;7.40;;;2.97;;
42704;SDS011;28342;42.594;23.414;2022-10-26T10:09:13;6.75;;;3.00;;
42704;SDS011;28342;42.594;23.414;2022-10-26T10:11:51;9.80;;;2.85;;
42704;SDS011;28342;42.594;23.414;2022-10-26T10:14:32;8.60;;;3.50;;
42704;SDS011;28342;42.594;23.414;2022-10-26T10:17:04;7.60;;;2.90;;
42704;SDS011;28342;42.594;23.414;2022-10-26T10:19:35;6.20;;;3.00;;
42704;SDS011;28342;42.594;23.414;2022-10-26T10:22:10;6.03;;;3.45;;
42704;SDS011;28342;42.594;23.414;2022-10-26T10:24:55;6.18;;;2.42;;
42704;SDS011;28342;42.594;23.414;2022-10-26T10:27:28;10.50;;;3.08;;
42704;SDS011;28342;42.594;23.414;2022-10-26T10:29:55;9.05;;;2.55;;
42704;SDS011;28342;42.594;23.414;2022-10-26T10:34:51;9.48;;;2.63;;
42704;SDS011;28342;42.594;23.414;2022-10-26T10:39:48;7.32;;;2.65;;
42704;SDS011;28342;42.594;23.414;2022-10-26T10:42:15;5.28;;;2.78;;
42704;SDS011;28342;42.594;23.414;2022-10-26T10:44:44;13.30;;;3.42;;
42704;SDS011;28342;42.594;23.414;2022-10-26T10:47:17;9.75;;;3.17;;
42704;SDS011;28342;42.594;23.414;2022-10-26T10:49:50;6.97;;;3.38;;
42704;SDS011;28342;42.594;23.414;2022-10-26T10:52:28;9.23;;;3.28;;
42704;SDS011;28342;42.594;23.414;2022-10-26T10:55:02;9.30;;;3.72;;
42704;SDS011;28342;42.594;23.414;2022-10-26T11:00:22;10.05;;;3.47;;
42704;SDS011;28342;42.594;23.414;2022-10-26T11:05:57;10.25;;;3.53;;
42704;SDS011;28342;42.594;23.414;2022-10-26T11:08:47;9.13;;;3.17;;
42704;SDS011;28342;42.594;23.414;2022-10-26T11:11:36;11.43;;;3.08;;
42704;SDS011;28342;42.594;23.414;2022-10-26T11:14:40;13.00;;;2.65;;
42704;SDS011;28342;42.594;23.414;2022-10-26T11:19:41;8.82;;;2.95;;
42704;SDS011;28342;42.594;23.414;2022-10-26T11:22:35;7.35;;;2.70;;
42704;SDS011;28342;42.594;23.414;2022-10-26T11:27:53;7.75;;;3.00;;
42704;SDS011;28342;42.594;23.414;2022-10-26T11:30:23;11.32;;;3.05;;
42704;SDS011;28342;42.594;23.414;2022-10-26T11:32:51;8.10;;;2.72;;
42704;SDS011;28342;42.594;23.414;2022-10-26T11:35:30;7.85;;;2.90;;
42704;SDS011;28342;42.594;23.414;2022-10-26T11:38:03;8.88;;;2.90;;
42704;SDS011;28342;42.594;23.414;2022-10-26T11:43:38;13.10;;;2.63;;
42704;SDS011;28342;42.594;23.414;2022-10-26T11:51:51;12.02;;;2.70;;
42704;SDS011;28342;42.594;23.414;2022-10-26T11:54:03;9.13;;;2.60;;
42704;SDS011;28342;42.594;23.414;2022-10-26T11:56:35;12.32;;;2.80;;
42704;SDS011;28342;42.594;23.414;2022-10-26T11:59:04;8.98;;;3.03;;
42704;SDS011;28342;42.594;23.414;2022-10-26T12:01:31;9.02;;;2.90;;
42704;SDS011;28342;42.594;23.414;2022-10-26T12:03:58;11.18;;;3.53;;
42704;SDS011;28342;42.594;23.414;2022-10-26T12:06:27;6.70;;;2.70;;
42704;SDS011;28342;42.594;23.414;2022-10-26T12:08:57;8.35;;;3.13;;
42704;SDS011;28342;42.594;23.414;2022-10-26T12:13:54;4.97;;;2.60;;
42704;SDS011;28342;42.594;23.414;2022-10-26T12:19:12;10.68;;;3.08;;
42704;SDS011;28342;42.594;23.414;2022-10-26T12:21:47;9.13;;;2.10;;
42704;SDS011;28342;42.594;23.414;2022-10-26T12:24:27;5.03;;;2.22;;
42704;SDS011;28342;42.594;23.414;2022-10-26T12:29:28;10.43;;;2.40;;
42704;SDS011;28342;42.594;23.414;2022-10-26T12:37:59;6.22;;;2.42;;
42704;SDS011;28342;42.594;23.414;2022-10-26T12:45:41;7.78;;;2.00;;
42704;SDS011;28342;42.594;23.414;2022-10-26T12:48:21;3.78;;;1.70;;
42704;SDS011;28342;42.594;23.414;2022-10-26T12:50:51;5.13;;;1.90;;
42704;SDS011;28342;42.594;23.414;2022-10-26T12:53:18;4.07;;;1.73;;
42704;SDS011;28342;42.594;23.414;2022-10-26T13:08:19;3.78;;;1.35;;
42704;SDS011;28342;42.594;23.414;2022-10-26T13:13:30;2.03;;;1.40;;
42704;SDS011;28342;42.594;23.414;2022-10-26T13:15:59;4.93;;;1.25;;
42704;SDS011;28342;42.594;23.414;2022-10-26T13:18:27;6.20;;;2.30;;
42704;SDS011;28342;42.594;23.414;2022-10-26T13:21:09;1.80;;;1.35;;
42704;SDS011;28342;42.594;23.414;2022-10-26T13:23:38;3.45;;;1.20;;
42704;SDS011;28342;42.594;23.414;2022-10-26T13:26:07;3.50;;;1.20;;
42704;SDS011;28342;42.594;23.414;2022-10-26T13:31:04;2.13;;;1.67;;
42704;SDS011;28342;42.594;23.414;2022-10-26T13:33:36;4.97;;;1.30;;
42704;SDS011;28342;42.594;23.414;2022-10-26T13:36:19;4.00;;;1.10;;
42704;SDS011;28342;42.594;23.414;2022-10-26T13:39:09;5.00;;;1.20;;
42704;SDS011;28342;42.594;23.414;2022-10-26T13:41:44;3.47;;;1.10;;
42704;SDS011;28342;42.594;23.414;2022-10-26T13:44:15;3.38;;;1.42;;
42704;SDS011;28342;42.594;23.414;2022-10-26T13:46:46;5.30;;;1.40;;
42704;SDS011;28342;42.594;23.414;2022-10-26T13:49:22;6.45;;;1.50;;
42704;SDS011;28342;42.594;23.414;2022-10-26T13:51:51;3.80;;;1.33;;
42704;SDS011;28342;42.594;23.414;2022-10-26T13:57:09;2.42;;;1.20;;
42704;SDS011;28342;42.594;23.414;2022-10-26T13:59:37;4.07;;;1.00;;
42704;SDS011;28342;42.594;23.414;2022-10-26T14:04:40;2.65;;;1.15;;
42704;SDS011;28342;42.594;23.414;2022-10-26T14:07:14;5.18;;;1.17;;
42704;SDS011;28342;42.594;23.414;2022-10-26T14:09:48;5.07;;;1.50;;
42704;SDS011;28342;42.594;23.414;2022-10-26T14:12:15;4.13;;;0.98;;
42704;SDS011;28342;42.594;23.414;2022-10-26T14:14:43;3.65;;;0.98;;
42704;SDS011;28342;42.594;23.414;2022-10-26T14:17:27;3.70;;;1.17;;
42704;SDS011;28342;42.594;23.414;2022-10-26T14:20:02;5.57;;;1.00;;
42704;SDS011;28342;42.594;23.414;2022-10-26T14:22:28;4.30;;;1.27;;
42704;SDS011;28342;42.594;23.414;2022-10-26T14:24:56;6.60;;;1.33;;
42704;SDS011;28342;42.594;23.414;2022-10-26T14:27:24;17.75;;;10.13;;
42704;SDS011;28342;42.594;23.414;2022-10-26T14:29:52;12.57;;;3.45;;
42704;SDS011;28342;42.594;23.414;2022-10-26T14:32:19;3.72;;;2.00;;
42704;SDS011;28342;42.594;23.414;2022-10-26T14:34:45;7.55;;;1.60;;
42704;SDS011;28342;42.594;23.414;2022-10-26T14:37:53;4.68;;;1.58;;
42704;SDS011;28342;42.594;23.414;2022-10-26T14:40:02;1.70;;;0.95;;
42704;SDS011;28342;42.594;23.414;2022-10-26T14:42:37;2.55;;;1.40;;
42704;SDS011;28342;42.594;23.414;2022-10-26T14:45:20;4.13;;;2.50;;
42704;SDS011;28342;42.594;23.414;2022-10-26T14:47:49;6.70;;;2.72;;
42704;SDS011;28342;42.594;23.414;2022-10-26T14:50:17;12.52;;;2.42;;
42704;SDS011;28342;42.594;23.414;2022-10-26T14:52:48;9.23;;;2.83;;
42704;SDS011;28342;42.594;23.414;2022-10-26T14:55:16;8.13;;;3.00;;
42704;SDS011;28342;42.594;23.414;2022-10-26T14:57:44;11.30;;;3.60;;
42704;SDS011;28342;42.594;23.414;2022-10-26T15:00:15;7.93;;;3.03;;
42704;SDS011;28342;42.594;23.414;2022-10-26T15:02:43;6.75;;;2.70;;
42704;SDS011;28342;42.594;23.414;2022-10-26T15:05:17;9.55;;;2.72;;
42704;SDS011;28342;42.594;23.414;2022-10-26T15:07:54;6.55;;;2.42;;
42704;SDS011;28342;42.594;23.414;2022-10-26T15:13:34;13.40;;;3.30;;
42704;SDS011;28342;42.594;23.414;2022-10-26T15:15:56;26.65;;;16.60;;
42704;SDS011;28342;42.594;23.414;2022-10-26T15:18:32;14.43;;;4.60;;
42704;SDS011;28342;42.594;23.414;2022-10-26T15:21:00;7.38;;;3.70;;
42704;SDS011;28342;42.594;23.414;2022-10-26T15:23:26;8.13;;;3.42;;
42704;SDS011;28342;42.594;23.414;2022-10-26T15:25:59;8.93;;;4.82;;
42704;SDS011;28342;42.594;23.414;2022-10-26T15:31:06;8.48;;;3.90;;
42704;SDS011;28342;42.594;23.414;2022-10-26T15:33:33;9.40;;;3.33;;
42704;SDS011;28342;42.594;23.414;2022-10-26T15:38:35;8.10;;;3.90;;
42704;SDS011;28342;42.594;23.414;2022-10-26T15:41:05;15.85;;;5.82;;
42704;SDS011;28342;42.594;23.414;2022-10-26T15:43:45;9.45;;;3.85;;
42704;SDS011;28342;42.594;23.414;2022-10-26T15:46:11;10.10;;;3.00;;
42704;SDS011;28342;42.594;23.414;2022-10-26T15:48:37;12.02;;;3.42;;
42704;SDS011;28342;42.594;23.414;2022-10-26T15:51:04;13.57;;;3.70;;
42704;SDS011;28342;42.594;23.414;2022-10-26T15:53:31;8.32;;;4.07;;
42704;SDS011;28342;42.594;23.414;2022-10-26T15:55:57;12.20;;;4.53;;
42704;SDS011;28342;42.594;23.414;2022-10-26T15:58:24;14.82;;;4.43;;
42704;SDS011;28342;42.594;23.414;2022-10-26T16:00:51;16.10;;;5.35;;
42704;SDS011;28342;42.594;23.414;2022-10-26T16:03:18;11.30;;;5.30;;
42704;SDS011;28342;42.594;23.414;2022-10-26T16:05:46;17.15;;;5.75;;
42704;SDS011;28342;42.594;23.414;2022-10-26T16:08:17;17.25;;;6.32;;
42704;SDS011;28342;42.594;23.414;2022-10-26T16:10:42;10.50;;;6.35;;
42704;SDS011;28342;42.594;23.414;2022-10-26T16:15:56;13.43;;;6.93;;
42704;SDS011;28342;42.594;23.414;2022-10-26T16:18:22;13.30;;;6.75;;
42704;SDS011;28342;42.594;23.414;2022-10-26T16:20:48;12.50;;;7.47;;
42704;SDS011;28342;42.594;23.414;2022-10-26T16:23:13;12.82;;;6.07;;
42704;SDS011;28342;42.594;23.414;2022-10-26T16:25:41;18.00;;;6.13;;
42704;SDS011;28342;42.594;23.414;2022-10-26T16:28:10;11.90;;;5.68;;
42704;SDS011;28342;42.594;23.414;2022-10-26T16:30:36;21.15;;;5.97;;
42704;SDS011;28342;42.594;23.414;2022-10-26T16:33:02;14.52;;;5.68;;
42704;SDS011;28342;42.594;23.414;2022-10-26T16:35:27;20.85;;;6.20;;
42704;SDS011;28342;42.594;23.414;2022-10-26T16:37:53;14.20;;;5.47;;
42704;SDS011;28342;42.594;23.414;2022-10-26T16:40:18;15.43;;;5.75;;
42704;SDS011;28342;42.594;23.414;2022-10-26T16:42:43;18.48;;;10.07;;
42704;SDS011;28342;42.594;23.414;2022-10-26T16:45:13;15.38;;;6.60;;
42704;SDS011;28342;42.594;23.414;2022-10-26T16:47:39;16.40;;;6.30;;
42704;SDS011;28342;42.594;23.414;2022-10-26T16:50:05;15.10;;;5.90;;
42704;SDS011;28342;42.594;23.414;2022-10-26T16:52:32;11.70;;;6.22;;
42704;SDS011;28342;42.594;23.414;2022-10-26T16:54:59;15.48;;;5.65;;
42704;SDS011;28342;42.594;23.414;2022-10-26T16:57:25;8.85;;;5.32;;
42704;SDS011;28342;42.594;23.414;2022-10-26T16:59:51;9.55;;;5.32;;
42704;SDS011;28342;42.594;23.414;2022-10-26T17:02:16;14.73;;;6.30;;
42704;SDS011;28342;42.594;23.414;2022-10-26T17:04:42;12.27;;;6.13;;
42704;SDS011;28342;42.594;23.414;2022-10-26T17:07:07;13.25;;;5.55;;
42704;SDS011;28342;42.594;23.414;2022-10-26T17:09:34;11.57;;;5.78;;
42704;SDS011;28342;42.594;23.414;2022-10-26T17:12:00;9.05;;;5.30;;